Terminal Aerodrome Forecast
Issued by NWS Hastings, NE

Home | Current Version | Previous Version | Text Only | Print | Product List | Glossary On
Versions: 1 2 3 4 5 6 7 8 9 10 11 12 13 14 15 16 17 18
000
FTUS43 KGID 230014 RRA
TAFGRI
TAF
KGRI 230014Z 2300/2324 VRB04KT 4SM -FZDZSN BR SCT008 OVC015
     FM230300 VRB03KT 4SM BR BKN008
     FM231000 27007KT 1 1/2SM BR BKN015
     FM231400 31008KT 4SM BR BKN025
     FM231600 34008KT P6SM SCT030
     FM232000 03007KT P6SM SCT050=

USA.gov is the U.S. government's official web portal to all federal, state and local government web resources and services.